Ovalo, Texas
Current Conditions -  °F | °C
As of 11:43 PM on Wednesday 17 Dec 2014 (Local Time) from KDYS Reporting Station
Overcast Overcast  
Wind Chill: 52°   Ceiling: 700
Heat Index: 52°   Visibility: 10mi
Dew Point: 46°   Wind: 10mph
Humidity: 82%   Direction: 170°S
Pressure: 30.06"   Gusts: NA
Location:  32.17°N, 99.81°W
Report Text: KDYS 180543Z AUTO 17009KT 10SM OVC007 11/08 A3006 RMK AO2
Loading
Personal Weather Stations






























Interactive Weather Map New forecast layout! Learn more

10-Day Weather Forecast

Advertisements
Track Severe Weather on mobile